Terminal Aerodrome Forecast
Issued by NWS

Home | Current Version | Previous Version | Graphics & Text | Print | Product List | Glossary On
Versions: 1 2 3 4 5 6 7 8 9 10 11 12 13 14 15 16 17 18 19 20 21 22
822
FTUS43 KLSX 261120
TAFSUS
TAF
KSUS 261120Z 2612/2712 17004KT P6SM BKN250
     FM261500 20011G17KT P6SM BKN080
     FM262000 20011KT P6SM VCSH OVC050
     FM270600 17005KT P6SM OVC050=

USA.gov is the U.S. government's official web portal to all federal, state and local government web resources and services.